KAPA/APA METAR and TAF weather

Enter ICAO airport designator
Station Type Date Time Source
KAPA METAR 2019/08/25 02:53 UTC NOAA

KAPA 250253Z 17008KT 10SM FEW110 FEW220 22/05 A3008 RMK AO2 SLP119 T02220050 51008


Station Type Date Time Source
KAPA Decoded METAR 2019/08/25 02:53 UTC NOAA

Station name not available
Aug 24, 2019 - 10:53 PM EDT / 2019.08.25 0253 UTC
Wind: from the S (170 degrees) at 9 MPH (8 KT):0
Visibility: 10 mile(s):0
Sky conditions: mostly clear
Temperature: 72.0 F (22.2 C)
Dew Point: 41.0 F (5.0 C)
Relative Humidity: 32%
Pressure (altimeter): 30.08 in. Hg (1018 hPa)
Pressure tendency: 0.02 inches (0.8 hPa) higher than three hours ago
ob: KAPA 250253Z 17008KT 10SM FEW110 FEW220 22/05 A3008 RMK AO2 SLP119 T02220050 51008
cycle: 3

Station Type Date Time Source
KAPA TAF 2019/08/24 18:36 UTC NOAA

TAF KAPA 241735Z 2418/2518 02009KT P6SM SCT150 BKN220
FM242000 34009KT P6SM FEW100 SCT150 BKN200
FM250100 VRB05KT P6SM FEW150 BKN220
FM250300 15009KT P6SM FEW150 BKN220
FM250400 20009KT P6SM FEW150 SCT220
FM251600 26010KT P6SM FEW120

Example: see airport list